Time;durP1;ratioP1;P1;durP2;ratioP2;P2;SDS_P1;SDS_P2;PMS_P1;PMS_P2;Temp;Humidity;BMP_temperature;BMP_pressure;BME280_temperature;BME280_humidity;BME280_pressure;Samples;Min_cycle;Max_cycle;Signal;HPM_P1;HPM_P2
2022/04/29 00:01:29;;;;;;;16.52;7.57;;;;;;;-149.78;100.00;50379.53;4680398;30;20499;-73
2022/04/29 00:03:54;;;;;;;16.80;7.70;;;;;;;-149.78;100.00;50365.84;4665009;30;20057;-73
2022/04/29 00:06:20;;;;;;;18.42;7.63;;;;;;;-149.78;100.00;50334.53;4672619;30;20103;-73
2022/04/29 00:08:46;;;;;;;18.25;7.55;;;;;;;-149.78;100.00;50334.53;4672426;30;20046;-73
2022/04/29 00:11:12;;;;;;;22.58;7.28;;;;;;;-149.78;100.00;50381.47;4689168;30;20041;-72
2022/04/29 00:13:38;;;;;;;14.52;6.75;;;;;;;-149.78;100.00;50342.38;4673041;30;20131;-73
2022/04/29 00:16:05;;;;;;;11.77;6.78;;;;;;;-149.78;100.00;50350.19;4673008;30;20055;-73
2022/04/29 00:18:32;;;;;;;15.48;6.60;;;;;;;-149.78;100.00;50361.91;4688201;30;20032;-73
2022/04/29 00:20:58;;;;;;;15.80;6.68;;;;;;;-149.78;100.00;50342.38;4687568;30;20056;-74
2022/04/29 00:23:23;;;;;;;17.23;6.78;;;;;;;-149.78;100.00;50342.38;4687874;30;20174;-73
2022/04/29 00:25:49;;;;;;;19.77;7.03;;;;;;;-149.78;100.00;50367.78;4686592;30;20045;-73
2022/04/29 00:28:15;;;;;;;14.93;6.72;;;;;;;-149.78;100.00;50346.28;4687939;30;20037;-72
2022/04/29 00:30:41;;;;;;;15.25;7.00;;;;;;;-149.78;100.00;50342.38;4687411;30;20048;-75
2022/04/29 00:33:08;;;;;;;19.17;7.63;;;;;;;-149.78;100.00;50377.56;4687550;30;20758;-74
2022/04/29 00:35:34;;;;;;;18.77;6.95;;;;;;;-149.78;100.00;50389.31;4672024;30;20132;-74
2022/04/29 00:38:01;;;;;;;15.82;6.80;;;;;;;-149.78;100.00;50381.47;4688690;30;20050;-74
2022/04/29 00:40:31;;;;;;;19.10;6.50;;;;;;;-149.78;100.00;50332.59;4672417;30;20525;-74
2022/04/29 00:42:57;;;;;;;17.60;6.78;;;;;;;-149.78;100.00;50373.66;4673413;30;20406;-74
2022/04/29 00:45:24;;;;;;;21.10;7.13;;;;;;;-149.78;100.00;50369.75;4687513;30;20542;-74
2022/04/29 00:47:52;;;;;;;18.80;6.75;;;;;;;-149.78;100.00;50365.84;4688027;30;20077;-74
2022/04/29 00:50:20;;;;;;;13.50;6.97;;;;;;;-149.78;100.00;50373.66;4688854;30;20128;-74
2022/04/29 00:52:51;;;;;;;14.48;6.43;;;;;;;-149.78;100.00;50377.56;4671513;30;20092;-75
2022/04/29 00:55:17;;;;;;;20.08;6.78;;;;;;;-149.78;100.00;50373.66;4687306;30;20387;-74
2022/04/29 00:57:58;;;;;;;19.08;7.28;;;;;;;-149.78;100.00;50369.75;4685714;30;20042;-74
2022/04/29 01:00:23;;;;;;;18.05;6.80;;;;;;;-149.78;100.00;50373.66;4656988;30;20060;-74
2022/04/29 01:02:53;;;;;;;17.10;7.25;;;;;;;-149.78;100.00;50348.22;4686197;30;20041;-73
2022/04/29 01:05:21;;;;;;;16.05;6.97;;;;;;;-149.78;100.00;50338.44;4686959;30;20063;-74
2022/04/29 01:07:48;;;;;;;20.27;7.70;;;;;;;-149.78;100.00;50361.91;4686724;30;20052;-72
2022/04/29 01:10:16;;;;;;;18.20;8.10;;;;;;;-149.78;100.00;50358.00;4686168;30;20116;-72
2022/04/29 01:12:44;;;;;;;13.98;6.50;;;;;;;-149.78;100.00;50373.66;4686043;30;20054;-71
2022/04/29 01:15:13;;;;;;;23.25;6.63;;;;;;;-149.78;100.00;50354.09;4686323;30;20594;-71
2022/04/29 01:17:40;;;;;;;17.08;7.72;;;;;;;-149.78;100.00;50389.31;4687987;30;20124;-73
2022/04/29 01:20:12;;;;;;;19.85;7.25;;;;;;;-149.78;100.00;50338.44;4687027;30;20041;-72
2022/04/29 01:22:38;;;;;;;21.67;7.22;;;;;;;-149.78;100.00;50389.31;4688175;30;20700;-72
2022/04/29 01:25:04;;;;;;;18.85;6.70;;;;;;;-149.78;100.00;50350.19;4671813;30;20115;-72
2022/04/29 01:27:30;;;;;;;15.05;7.07;;;;;;;-149.78;100.00;50352.16;4671437;30;20054;-72
2022/04/29 01:30:13;;;;;;;21.70;6.90;;;;;;;-149.78;100.00;50377.56;4671372;30;20049;-73
2022/04/29 01:32:41;;;;;;;18.92;7.18;;;;;;;-149.78;100.00;50356.06;4687336;30;20525;-73
2022/04/29 01:35:08;;;;;;;15.05;7.22;;;;;;;-149.78;100.00;50397.13;4687333;30;20045;-73
2022/04/29 01:37:34;;;;;;;19.70;7.20;;;;;;;-149.78;100.00;50365.84;4672207;30;20427;-72
2022/04/29 01:40:00;;;;;;;18.80;7.53;;;;;;;-149.78;100.00;50348.22;4688397;30;20050;-72
2022/04/29 01:42:26;;;;;;;17.92;7.95;;;;;;;-149.78;100.00;50395.16;4679663;30;20047;-72
2022/04/29 01:44:54;;;;;;;19.13;8.95;;;;;;;-149.78;100.00;50363.88;4675605;30;20046;-72
2022/04/29 01:47:20;;;;;;;16.05;7.07;;;;;;;-149.78;100.00;50393.22;4690936;30;20500;-72
2022/04/29 01:49:46;;;;;;;17.40;6.93;;;;;;;-149.78;100.00;50389.31;4673646;30;21004;-72
2022/04/29 01:52:12;;;;;;;23.05;8.60;;;;;;;-149.78;100.00;50330.63;4691353;30;20045;-73
2022/04/29 01:54:38;;;;;;;21.83;7.00;;;;;;;-149.78;100.00;50354.09;4690783;30;20671;-72
2022/04/29 01:57:09;;;;;;;19.80;8.25;;;;;;;-149.78;100.00;50365.84;4676062;30;20374;-72
2022/04/29 01:59:35;;;;;;;17.95;7.68;;;;;;;-149.78;100.00;50346.28;4690247;30;20137;-73
2022/04/29 02:02:03;;;;;;;16.95;7.65;;;;;;;-149.78;100.00;50361.91;4688805;30;20033;-73
2022/04/29 02:04:29;;;;;;;19.75;7.88;;;;;;;-149.78;100.00;50367.78;4689499;30;20053;-72
2022/04/29 02:06:58;;;;;;;21.15;7.85;;;;;;;-149.78;100.00;50381.47;4659656;30;20438;-73
2022/04/29 02:09:29;;;;;;;24.15;8.32;;;;;;;-149.78;100.00;50365.84;4688553;30;20080;-73
2022/04/29 02:12:05;;;;;;;25.40;8.40;;;;;;;-149.78;100.00;50397.13;4689171;30;20070;-73
2022/04/29 02:14:39;;;;;;;25.27;8.85;;;;;;;-149.78;100.00;50346.28;4689037;30;20053;-73
2022/04/29 02:17:06;;;;;;;21.20;8.55;;;;;;;-149.78;100.00;50350.19;4689010;30;20491;-73
2022/04/29 02:19:33;;;;;;;18.58;7.72;;;;;;;-149.78;100.00;50377.56;4672533;30;20046;-73
2022/04/29 02:22:00;;;;;;;21.77;9.10;;;;;;;-149.78;100.00;50354.09;4688435;30;20060;-73
2022/04/29 02:24:26;;;;;;;20.52;8.60;;;;;;;-149.78;100.00;50389.31;4688429;30;20078;-72
2022/04/29 02:26:53;;;;;;;22.27;8.23;;;;;;;-149.78;100.00;50363.88;4688570;30;20045;-73
2022/04/29 02:29:20;;;;;;;19.65;8.63;;;;;;;-149.78;100.00;50358.00;4688012;30;20041;-73
2022/04/29 02:31:47;;;;;;;23.02;8.90;;;;;;;-149.78;100.00;50381.47;4688909;30;20164;-73
2022/04/29 02:34:12;;;;;;;19.08;8.05;;;;;;;-149.78;100.00;50373.66;4687016;30;20045;-73
2022/04/29 02:36:40;;;;;;;17.48;7.97;;;;;;;-149.78;100.00;50393.22;4672796;30;20038;-72
2022/04/29 02:39:06;;;;;;;19.50;8.38;;;;;;;-149.78;100.00;50383.44;4673464;30;20034;-73
2022/04/29 02:41:32;;;;;;;23.02;8.63;;;;;;;-149.78;100.00;50381.47;4672093;30;20056;-72
2022/04/29 02:43:58;;;;;;;23.13;8.02;;;;;;;-149.78;100.00;50377.56;4688250;30;20049;-73
2022/04/29 02:46:24;;;;;;;24.85;8.98;;;;;;;-149.78;100.00;50377.56;4686882;30;20128;-73
2022/04/29 02:48:49;;;;;;;24.10;8.25;;;;;;;-149.78;100.00;50379.53;4688920;30;20044;-73
2022/04/29 02:51:15;;;;;;;18.88;8.70;;;;;;;-149.78;100.00;50373.66;4688079;30;20479;-73
2022/04/29 02:53:43;;;;;;;19.98;8.30;;;;;;;-149.78;100.00;50350.19;4657336;30;20114;-72
2022/04/29 02:56:09;;;;;;;19.10;8.23;;;;;;;-149.78;100.00;50389.31;4687160;30;20124;-72
2022/04/29 02:58:35;;;;;;;27.30;9.20;;;;;;;-149.78;100.00;50371.69;4686995;30;20042;-73
2022/04/29 03:01:01;;;;;;;24.27;8.45;;;;;;;-149.78;100.00;50344.31;4688969;30;20061;-73
2022/04/29 03:03:28;;;;;;;21.15;9.00;;;;;;;-149.78;100.00;50381.47;4688330;30;20041;-73
2022/04/29 03:05:54;;;;;;;18.40;7.95;;;;;;;-149.78;100.00;50381.47;4671733;30;20156;-72
2022/04/29 03:08:20;;;;;;;19.88;9.23;;;;;;;-149.78;100.00;50365.84;4687760;30;20885;-72
2022/04/29 03:10:47;;;;;;;23.75;9.18;;;;;;;-149.78;100.00;50373.66;4688834;30;20052;-73
2022/04/29 03:13:16;;;;;;;21.60;8.73;;;;;;;-149.78;100.00;50389.31;4687449;30;20068;-72
2022/04/29 03:15:41;;;;;;;24.50;8.90;;;;;;;-149.78;100.00;50408.84;4673000;30;20061;-73
2022/04/29 03:18:21;;;;;;;23.42;8.82;;;;;;;-149.78;100.00;50408.84;4671443;30;20183;-72
2022/04/29 03:20:50;;;;;;;27.58;9.88;;;;;;;-149.78;100.00;50365.84;4686330;30;20135;-73
2022/04/29 03:23:15;;;;;;;21.95;9.68;;;;;;;-149.78;100.00;50358.00;4672360;30;20095;-73
2022/04/29 03:25:42;;;;;;;21.00;9.40;;;;;;;-149.78;100.00;50365.84;4689016;30;20133;-73
2022/04/29 03:28:08;;;;;;;24.35;10.43;;;;;;;-149.78;100.00;50354.09;4673996;30;20046;-73
2022/04/29 03:30:35;;;;;;;22.13;8.82;;;;;;;-149.78;100.00;50397.13;4687120;30;20096;-73
2022/04/29 03:33:03;;;;;;;27.42;10.00;;;;;;;-149.78;100.00;50383.44;4671975;30;20049;-73
2022/04/29 03:35:29;;;;;;;23.05;9.57;;;;;;;-149.78;100.00;50412.78;4687482;30;20115;-72
2022/04/29 03:37:55;;;;;;;22.33;9.52;;;;;;;-149.78;100.00;50385.38;4686502;30;20049;-73
2022/04/29 03:40:23;;;;;;;25.70;10.30;;;;;;;-149.78;100.00;50361.91;4686533;30;20045;-73
2022/04/29 03:42:49;;;;;;;28.85;10.77;;;;;;;-149.78;100.00;50369.75;4670359;30;20030;-73
2022/04/29 03:45:15;;;;;;;29.23;11.88;;;;;;;-149.78;100.00;50385.38;4671636;30;20038;-73
2022/04/29 03:47:42;;;;;;;29.65;10.68;;;;;;;-149.78;100.00;50365.84;4688251;30;20103;-74
2022/04/29 03:50:09;;;;;;;34.92;11.90;;;;;;;-149.78;100.00;50385.38;4686385;30;20049;-73
2022/04/29 03:52:43;;;;;;;30.00;11.70;;;;;;;-149.78;100.00;50361.91;4670796;30;20045;-72
2022/04/29 03:55:09;;;;;;;29.73;12.32;;;;;;;-149.78;100.00;50397.13;4688027;30;20485;-74
2022/04/29 03:57:35;;;;;;;30.40;11.75;;;;;;;-149.78;100.00;50385.38;4670072;30;20053;-73
2022/04/29 04:00:01;;;;;;;27.05;11.95;;;;;;;-149.78;100.00;50387.34;4685977;30;20109;-72
2022/04/29 04:02:28;;;;;;;35.60;13.43;;;;;;;-149.78;100.00;50369.75;4686594;30;20041;-73
2022/04/29 04:04:53;;;;;;;33.40;13.73;;;;;;;-149.78;100.00;50371.69;4686644;30;20043;-72
2022/04/29 04:07:19;;;;;;;30.65;13.75;;;;;;;-149.78;100.00;50365.84;4671209;30;20874;-72
2022/04/29 04:09:45;;;;;;;29.20;13.35;;;;;;;-149.78;100.00;50363.88;4670779;30;20049;-73
2022/04/29 04:12:11;;;;;;;30.73;14.30;;;;;;;-149.78;100.00;50373.66;4686031;30;20049;-72
2022/04/29 04:14:38;;;;;;;36.10;14.82;;;;;;;-149.78;100.00;50385.38;4685462;30;20092;-73
2022/04/29 04:17:04;;;;;;;33.83;14.27;;;;;;;-149.78;100.00;50369.75;4685267;30;20625;-73
2022/04/29 04:19:29;;;;;;;32.50;13.45;;;;;;;-149.78;100.00;50389.31;4671892;30;20050;-74
2022/04/29 04:21:55;;;;;;;32.75;13.43;;;;;;;-149.78;100.00;50369.75;4687360;30;20052;-72
2022/04/29 04:24:21;;;;;;;32.05;13.77;;;;;;;-149.78;100.00;50369.75;4686257;30;20546;-73
2022/04/29 04:26:46;;;;;;;33.13;13.27;;;;;;;-149.78;100.00;50385.38;4670064;30;20053;-72
2022/04/29 04:29:12;;;;;;;33.25;13.02;;;;;;;-149.78;100.00;50377.56;4685459;30;20061;-73
2022/04/29 04:31:38;;;;;;;31.33;13.73;;;;;;;-149.78;100.00;50404.94;4670472;30;20077;-73
2022/04/29 04:34:49;;;;;;;35.63;14.38;;;;;;;-149.78;100.00;50354.09;4657538;30;20865;-73
2022/04/29 04:36:53;;;;;;;36.97;13.85;;;;;;;-149.78;100.00;50371.69;4686189;30;20077;-72
2022/04/29 04:39:21;;;;;;;36.75;14.00;;;;;;;-149.78;100.00;50379.53;4686583;30;20041;-72
2022/04/29 04:41:48;;;;;;;26.27;12.88;;;;;;;-149.78;100.00;50389.31;4686357;30;20033;-73
2022/04/29 04:44:14;;;;;;;33.38;14.27;;;;;;;-149.78;100.00;50361.91;4687172;30;20049;-73
2022/04/29 04:46:40;;;;;;;32.55;13.50;;;;;;;-149.78;100.00;50358.00;4685563;30;20041;-73
2022/04/29 04:49:06;;;;;;;38.10;13.95;;;;;;;-149.78;100.00;50379.53;4686146;30;20131;-73
2022/04/29 04:51:32;;;;;;;28.27;12.55;;;;;;;-149.78;100.00;50363.88;4671513;30;20087;-73
2022/04/29 04:53:58;;;;;;;34.22;14.18;;;;;;;-149.78;100.00;50379.53;4684396;30;20046;-71
2022/04/29 04:56:26;;;;;;;32.10;13.75;;;;;;;-149.78;100.00;50373.66;4671716;30;20423;-73
2022/04/29 04:58:52;;;;;;;37.45;13.10;;;;;;;-149.78;100.00;50363.88;4654803;30;20046;-73
2022/04/29 05:01:17;;;;;;;29.45;13.00;;;;;;;-149.78;100.00;50381.47;4686269;30;20061;-73
2022/04/29 05:03:43;;;;;;;32.22;13.52;;;;;;;-149.78;100.00;50369.75;4670460;30;20049;-73
2022/04/29 05:06:09;;;;;;;36.95;14.00;;;;;;;-149.78;100.00;50389.31;4685205;30;20830;-73
2022/04/29 05:08:35;;;;;;;31.02;12.80;;;;;;;-149.78;100.00;50354.09;4685003;30;20045;-73
2022/04/29 05:11:00;;;;;;;31.60;13.48;;;;;;;-149.78;100.00;50385.38;4669508;30;20092;-73
2022/04/29 05:13:27;;;;;;;36.28;13.80;;;;;;;-149.78;100.00;50365.84;4687298;30;20050;-73
2022/04/29 05:15:52;;;;;;;38.03;12.82;;;;;;;-149.78;100.00;50385.38;4684902;30;20224;-72
2022/04/29 05:18:18;;;;;;;33.63;13.65;;;;;;;-149.78;100.00;50401.03;4685082;30;20041;-74
2022/04/29 05:20:43;;;;;;;26.90;12.63;;;;;;;-149.78;100.00;50367.78;4670293;30;21372;-73
2022/04/29 05:23:09;;;;;;;39.75;14.75;;;;;;;-149.78;100.00;50385.38;4684745;30;20052;-74
2022/04/29 05:25:35;;;;;;;34.05;13.40;;;;;;;-149.78;100.00;50371.69;4685485;30;20076;-74
2022/04/29 05:28:04;;;;;;;35.28;14.27;;;;;;;-149.78;100.00;50377.56;4671570;30;20049;-74
2022/04/29 05:30:31;;;;;;;38.70;14.60;;;;;;;-149.78;100.00;50377.56;4685553;30;20110;-73
2022/04/29 05:32:58;;;;;;;28.38;13.77;;;;;;;-149.78;100.00;50389.31;4670057;30;20037;-74
2022/04/29 05:35:24;;;;;;;33.88;15.02;;;;;;;-149.78;100.00;50373.66;4685397;30;20614;-74
2022/04/29 05:37:51;;;;;;;34.78;15.18;;;;;;;-149.78;100.00;50381.47;4655373;30;20372;-73
2022/04/29 05:43:02;;;;;;;37.70;15.60;;;;;;;-149.78;100.00;50420.59;4685116;30;20041;-74
2022/04/29 05:45:31;;;;;;;37.70;15.75;;;;;;;-149.78;100.00;50348.22;4671089;30;20073;-74
2022/04/29 05:47:56;;;;;;;36.65;14.70;;;;;;;-149.78;100.00;50377.56;4687511;30;20038;-73
2022/04/29 05:50:22;;;;;;;34.35;16.00;;;;;;;-149.78;100.00;50406.91;4686669;30;20108;-74
2022/04/29 05:52:48;;;;;;;39.88;16.10;;;;;;;-149.78;100.00;50354.09;4671610;30;20049;-74
2022/04/29 05:55:14;;;;;;;35.03;16.38;;;;;;;-149.78;100.00;50389.31;4687807;30;20107;-74
2022/04/29 05:57:40;;;;;;;37.83;16.65;;;;;;;-149.78;100.00;50385.38;4672680;30;20498;-75
2022/04/29 06:00:10;;;;;;;40.10;16.73;;;;;;;-149.78;100.00;50399.09;4684252;30;20072;-73
2022/04/29 06:02:39;;;;;;;38.58;15.93;;;;;;;-149.78;100.00;50369.75;4687764;30;20499;-73
2022/04/29 06:05:05;;;;;;;37.92;16.63;;;;;;;-149.78;100.00;50354.09;4685913;30;20674;-74
2022/04/29 06:07:31;;;;;;;38.50;16.17;;;;;;;-149.78;100.00;50381.47;4670972;30;20127;-73
2022/04/29 06:09:56;;;;;;;38.53;17.40;;;;;;;-149.78;100.00;50414.72;4685514;30;20116;-70
2022/04/29 06:12:22;;;;;;;41.90;17.35;;;;;;;-149.78;100.00;50389.31;4685742;30;20048;-70
2022/04/29 06:14:47;;;;;;;47.97;18.02;;;;;;;-149.78;100.00;50356.06;4683778;30;20132;-69
2022/04/29 06:17:14;;;;;;;40.00;16.38;;;;;;;-149.78;100.00;50328.69;4668005;30;20045;-69
2022/04/29 06:19:41;;;;;;;35.10;16.17;;;;;;;-149.78;100.00;50377.56;4683646;30;20038;-69
2022/04/29 06:22:07;;;;;;;40.45;17.05;;;;;;;-149.78;100.00;50354.09;4685285;30;20087;-69
2022/04/29 06:24:33;;;;;;;47.10;17.52;;;;;;;-149.78;100.00;50373.66;4684710;30;20037;-68
2022/04/29 06:26:59;;;;;;;45.20;17.65;;;;;;;-149.78;100.00;50377.56;4686789;30;20041;-69
2022/04/29 06:29:25;;;;;;;39.92;18.20;;;;;;;-149.78;100.00;50369.75;4672188;30;20091;-69
2022/04/29 06:31:51;;;;;;;37.35;17.95;;;;;;;-149.78;100.00;50377.56;4688465;30;20041;-69
2022/04/29 06:34:17;;;;;;;37.92;16.92;;;;;;;-149.78;100.00;50348.22;4686425;30;20714;-69
2022/04/29 06:36:42;;;;;;;38.83;17.48;;;;;;;-149.78;100.00;50401.03;4687620;30;20068;-69
2022/04/29 06:39:10;;;;;;;46.65;18.42;;;;;;;-149.78;100.00;50365.84;4672005;30;20547;-69
2022/04/29 06:41:36;;;;;;;45.70;18.15;;;;;;;-149.78;100.00;50322.81;4688164;30;20083;-69
2022/04/29 06:44:03;;;;;;;44.22;18.70;;;;;;;-149.78;100.00;50350.19;4668354;30;20053;-69
2022/04/29 06:46:28;;;;;;;44.28;18.92;;;;;;;-149.78;100.00;50369.75;4685630;30;20059;-70
2022/04/29 06:48:55;;;;;;;42.72;18.42;;;;;;;-149.78;100.00;50369.75;4685114;30;20096;-70
2022/04/29 06:51:23;;;;;;;43.42;18.27;;;;;;;-149.78;100.00;50358.00;4687048;30;20072;-70
2022/04/29 06:53:49;;;;;;;38.72;17.90;;;;;;;-149.78;100.00;50338.44;4687919;30;20045;-70
2022/04/29 06:56:15;;;;;;;40.45;17.25;;;;;;;-149.78;100.00;50318.91;4687311;30;20049;-69
2022/04/29 06:58:41;;;;;;;38.78;16.67;;;;;;;-149.78;100.00;50314.97;4686607;30;20037;-70
2022/04/29 07:01:07;;;;;;;35.35;16.42;;;;;;;-149.78;100.00;50340.41;4687599;30;20061;-70
2022/04/29 07:03:33;;;;;;;32.40;13.65;;;;;;;-149.78;100.00;50346.28;4688911;30;20041;-73
2022/04/29 07:06:01;;;;;;;27.08;13.52;;;;;;;-149.78;100.00;50314.97;4657720;30;20046;-71
2022/04/29 07:08:31;;;;;;;30.27;14.15;;;;;;;-149.78;100.00;50307.16;4674745;30;20041;-74
2022/04/29 07:10:56;;;;;;;32.50;15.82;;;;;;;-149.78;100.00;50330.63;4659142;30;20056;-70
2022/04/29 07:13:23;;;;;;;33.15;14.82;;;;;;;-149.78;100.00;50377.56;4688214;30;20045;-71
2022/04/29 07:15:48;;;;;;;32.35;15.48;;;;;;;-149.78;100.00;50361.91;4687746;30;20118;-72
2022/04/29 07:18:15;;;;;;;30.33;15.45;;;;;;;-149.78;100.00;50330.63;4672401;30;20045;-70
2022/04/29 07:20:41;;;;;;;35.85;15.43;;;;;;;-149.78;100.00;50350.19;4686522;30;20041;-70
2022/04/29 07:23:07;;;;;;;37.50;16.00;;;;;;;-149.78;100.00;50346.28;4671203;30;20380;-70
2022/04/29 07:25:33;;;;;;;45.40;16.70;;;;;;;-149.78;100.00;50381.47;4670873;30;20053;-70
2022/04/29 07:27:59;;;;;;;34.38;15.27;;;;;;;-149.78;100.00;50338.44;4666867;30;20487;-70
2022/04/29 07:30:26;;;;;;;30.90;15.15;;;;;;;-149.78;100.00;50334.53;4670038;30;20491;-70
2022/04/29 07:32:53;;;;;;;35.22;15.05;;;;;;;-149.78;100.00;50348.22;4667851;30;20050;-70
2022/04/29 07:43:34;;;;;;;35.72;14.88;;;;;;;-149.78;100.00;50375.63;4688333;30;20147;-70
2022/04/29 07:46:01;;;;;;;35.65;15.45;;;;;;;-149.78;100.00;50373.66;4688741;30;20061;-70
2022/04/29 07:48:27;;;;;;;32.38;14.07;;;;;;;-149.78;100.00;50373.66;4671553;30;20045;-74
2022/04/29 07:50:52;;;;;;;32.97;13.98;;;;;;;-149.78;100.00;50361.91;4672447;30;20045;-70
2022/04/29 07:53:18;;;;;;;31.10;15.05;;;;;;;-149.78;100.00;50334.53;4671053;30;20053;-70
2022/04/29 07:55:44;;;;;;;26.65;13.05;;;;;;;-149.78;100.00;50369.75;4686426;30;20561;-70
2022/04/29 07:58:10;;;;;;;38.95;13.57;;;;;;;-149.78;100.00;50338.44;4687067;30;20157;-70
2022/04/29 08:00:39;;;;;;;35.33;14.45;;;;;;;-149.78;100.00;50358.00;4685169;30;20062;-70
2022/04/29 08:03:05;;;;;;;34.13;14.20;;;;;;;-149.78;100.00;50322.81;4685692;30;20049;-70
2022/04/29 08:05:31;;;;;;;34.75;13.43;;;;;;;-149.78;100.00;50358.00;4686810;30;20041;-70
2022/04/29 08:07:59;;;;;;;30.58;13.45;;;;;;;-149.78;100.00;50369.75;4669007;30;20034;-70
2022/04/29 08:10:32;;;;;;;33.70;14.35;;;;;;;-149.78;100.00;50358.00;4685053;30;20050;-70
2022/04/29 08:13:03;;;;;;;37.67;14.82;;;;;;;-149.78;100.00;50309.13;4686860;30;20079;-70
2022/04/29 08:15:31;;;;;;;31.02;14.25;;;;;;;-149.78;100.00;50352.16;4684663;30;20521;-70
2022/04/29 08:17:57;;;;;;;37.38;14.45;;;;;;;-149.78;100.00;50330.63;4684873;30;20049;-70
2022/04/29 08:20:23;;;;;;;27.45;13.10;;;;;;;-149.78;100.00;50350.19;4684370;30;20055;-69
2022/04/29 08:22:50;;;;;;;35.00;13.30;;;;;;;-149.78;100.00;50371.69;4684879;30;20416;-69
2022/04/29 08:25:18;;;;;;;29.98;11.40;;;;;;;-149.78;100.00;50314.97;4686163;30;20041;-70
2022/04/29 08:27:44;;;;;;;21.65;10.77;;;;;;;-149.78;100.00;50322.81;4685098;30;20148;-70
2022/04/29 08:30:10;;;;;;;24.67;10.85;;;;;;;-149.78;100.00;50293.47;4685291;30;20117;-70
2022/04/29 08:32:39;;;;;;;19.08;9.80;;;;;;;-149.78;100.00;50244.59;4668946;30;21002;-70
2022/04/29 08:35:09;;;;;;;17.75;8.93;;;;;;;-149.78;100.00;50260.22;4684796;30;20041;-70
2022/04/29 08:37:40;;;;;;;19.48;9.95;;;;;;;-149.78;100.00;50201.56;4686075;30;20053;-70
2022/04/29 08:40:07;;;;;;;22.02;9.63;;;;;;;-149.78;100.00;50260.22;4684676;30;20045;-70
2022/04/29 08:42:37;;;;;;;21.13;11.00;;;;;;;-149.78;100.00;50258.28;4669191;30;20049;-70
2022/04/29 08:45:11;;;;;;;20.63;10.43;;;;;;;-149.78;100.00;50287.59;4685272;30;20796;-70
2022/04/29 08:47:40;;;;;;;18.77;9.73;;;;;;;-149.78;100.00;50225.03;4685078;30;20044;-70
2022/04/29 08:50:26;;;;;;;15.38;9.02;;;;;;;-149.78;90.53;50217.19;4683947;30;20044;-70
2022/04/29 08:52:54;;;;;;;12.98;7.80;;;;;;;-149.78;53.25;50131.16;4684454;30;20562;-69
2022/04/29 09:00:49;;;;;;;15.68;8.45;;;;;;;-149.78;53.64;50213.28;4684195;30;20148;-68
2022/04/29 09:03:20;;;;;;;18.35;10.05;;;;;;;-149.78;57.13;50185.91;4683819;30;20045;-69
2022/04/29 09:05:47;;;;;;;16.58;8.95;;;;;;;-149.78;55.08;50217.19;4684297;30;20030;-68
2022/04/29 09:08:15;;;;;;;13.52;9.15;;;;;;;-149.78;52.80;50187.88;4684728;30;20045;-68
2022/04/29 09:10:51;;;;;;;17.15;8.20;;;;;;;-149.78;47.37;50148.75;4684906;30;20877;-68
2022/04/29 09:13:24;;;;;;;21.67;9.38;;;;;;;-149.78;47.16;50154.63;4682352;30;20041;-70
2022/04/29 09:16:00;;;;;;;12.07;8.48;;;;;;;-149.78;47.86;50140.94;4684297;30;20479;-68
2022/04/29 09:18:51;;;;;;;14.63;8.18;;;;;;;-149.78;49.58;50199.59;4683405;30;20050;-69
2022/04/29 09:21:17;;;;;;;15.07;9.85;;;;;;;-149.78;52.08;50195.69;4682914;30;20490;-69
2022/04/29 09:23:47;;;;;;;14.77;8.70;;;;;;;-149.78;48.40;50148.75;4681259;30;20034;-69
2022/04/29 09:26:20;;;;;;;15.60;8.35;;;;;;;-149.78;47.91;50160.50;4667545;30;20048;-69
2022/04/29 09:28:47;;;;;;;17.67;8.50;;;;;;;-149.78;48.79;50166.34;4684757;30;20072;-69
2022/04/29 09:31:14;;;;;;;15.95;9.13;;;;;;;-149.78;47.51;50154.63;4666605;30;20399;-69
2022/04/29 09:33:51;;;;;;;12.77;8.43;;;;;;;-149.78;47.04;50170.25;4666526;30;20045;-69
2022/04/29 09:36:21;;;;;;;14.75;8.50;;;;;;;-149.78;48.28;50170.25;4683246;30;20907;-69
2022/04/29 09:41:36;;;;;;;16.67;9.15;;;;;;;-149.78;52.65;50189.81;4682157;30;20046;-68
2022/04/29 09:44:02;;;;;;;14.48;9.35;;;;;;;-149.78;53.56;50221.13;4683382;30;20050;-69
2022/04/29 09:46:28;;;;;;;17.40;8.75;;;;;;;-149.78;54.47;50225.03;4683503;30;20550;-69
2022/04/29 09:48:54;;;;;;;17.77;8.27;;;;;;;-149.78;52.32;50213.28;4668785;30;20146;-68
2022/04/29 09:51:41;;;;;;;14.77;7.90;;;;;;;-149.78;52.67;50236.75;4682849;30;20038;-68
2022/04/29 09:54:16;;;;;;;20.90;8.52;;;;;;;-149.78;51.00;50162.44;4683180;30;20065;-68
2022/04/29 09:57:06;;;;;;;16.85;8.27;;;;;;;-149.78;50.33;50166.34;4684303;30;20116;-68
2022/04/29 09:59:59;;;;;;;15.32;8.48;;;;;;;-149.78;51.46;50170.25;4682536;30;20507;-69
2022/04/29 10:02:28;;;;;;;13.63;8.30;;;;;;;-149.78;49.96;50150.72;4687017;30;20483;-69
2022/04/29 10:04:55;;;;;;;13.07;7.90;;;;;;;-149.78;47.82;50146.81;4672553;30;20071;-69
2022/04/29 10:07:23;;;;;;;12.55;7.70;;;;;;;-149.78;44.62;50135.06;4687271;30;20104;-68
2022/04/29 10:09:54;;;;;;;17.33;7.65;;;;;;;-149.78;48.26;50197.66;4672408;30;20045;-68
2022/04/29 10:12:24;;;;;;;14.75;7.95;;;;;;;-149.78;50.53;50228.94;4686285;30;20037;-68
2022/04/29 10:14:59;;;;;;;14.27;7.57;;;;;;;-149.78;53.67;50205.47;4671305;30;20127;-68
2022/04/29 10:23:15;;;;;;;16.45;7.75;;;;;;;-149.78;45.92;50154.63;4686374;30;20103;-68
2022/04/29 10:25:44;;;;;;;14.43;7.88;;;;;;;-149.78;49.20;50170.25;4687401;30;20044;-68
2022/04/29 10:28:22;;;;;;;15.88;8.05;;;;;;;-149.78;48.95;50189.81;4686742;30;20060;-68
2022/04/29 10:31:00;;;;;;;17.05;9.25;;;;;;;-149.78;49.14;50195.69;4687000;30;20049;-68
2022/04/29 10:33:26;;;;;;;17.20;7.82;;;;;;;-149.78;49.89;50183.97;4685448;30;20142;-69
2022/04/29 10:35:53;;;;;;;15.63;8.40;;;;;;;-149.78;51.17;50221.13;4686546;30;20550;-68
2022/04/29 10:38:23;;;;;;;18.60;8.80;;;;;;;-149.78;49.96;50201.56;4670439;30;20037;-69
2022/04/29 10:41:08;;;;;;;16.80;8.93;;;;;;;-149.78;52.80;50189.81;4687435;30;20113;-69
2022/04/29 10:43:38;;;;;;;19.55;8.13;;;;;;;-149.78;51.80;50189.81;4687826;30;20394;-68
2022/04/29 10:46:03;;;;;;;20.35;9.43;;;;;;;-149.78;53.60;50236.75;4687123;30;20754;-69
2022/04/29 10:48:30;;;;;;;13.63;8.57;;;;;;;-149.78;54.64;50219.16;4686185;30;20036;-68
2022/04/29 10:50:56;;;;;;;19.90;8.52;;;;;;;-149.78;53.27;50232.84;4671858;30;20037;-68
2022/04/29 10:53:23;;;;;;;18.75;7.85;;;;;;;-149.78;50.78;50187.88;4686844;30;20054;-69
2022/04/29 10:55:49;;;;;;;17.52;8.68;;;;;;;-149.78;49.80;50240.66;4670549;30;20056;-69
2022/04/29 10:58:20;;;;;;;18.63;8.70;;;;;;;-149.78;51.97;50221.13;4686052;30;20037;-69
2022/04/29 11:01:14;;;;;;;22.38;9.20;;;;;;;-149.78;52.60;50258.28;4686701;30;20096;-69
2022/04/29 11:03:41;;;;;;;17.52;8.70;;;;;;;-149.78;53.10;50223.06;4686829;30;20046;-69
2022/04/29 11:06:09;;;;;;;18.38;8.73;;;;;;;-149.78;52.59;50236.75;4686761;30;20052;-75
2022/04/29 11:08:35;;;;;;;16.38;9.02;;;;;;;-149.78;52.20;50225.03;4670506;30;20103;-69
2022/04/29 11:11:01;;;;;;;15.18;8.35;;;;;;;-149.78;50.74;50213.28;4686884;30;20042;-69
2022/04/29 11:13:27;;;;;;;18.98;7.90;;;;;;;-149.78;55.71;50273.91;4685739;30;20029;-69
2022/04/29 11:16:07;;;;;;;16.60;8.00;;;;;;;-149.78;53.15;50236.75;4685110;30;20049;-69
2022/04/29 11:18:33;;;;;;;20.90;9.10;;;;;;;-149.78;53.34;50279.78;4669570;30;20125;-69
2022/04/29 11:24:40;;;;;;;13.65;8.80;;;;;;;-149.78;51.78;50236.75;4684436;30;20083;-69
2022/04/29 11:26:44;;;;;;;14.07;8.40;;;;;;;-149.78;53.40;50264.13;4686560;30;20348;-69
2022/04/29 11:29:11;;;;;;;15.00;9.43;;;;;;;-149.78;53.40;50232.84;4686879;30;20037;-69
2022/04/29 11:31:37;;;;;;;23.63;9.60;;;;;;;-149.78;54.47;50223.06;4686770;30;20038;-69